createdAt,value
2023-02-26T00:01:27.173Z,0.67
2023-02-26T00:03:56.260Z,0.57
2023-02-26T00:06:24.210Z,0.67
2023-02-26T00:08:51.081Z,0.30
2023-02-26T00:11:18.187Z,0.54
2023-02-26T00:13:45.713Z,0.55
2023-02-26T00:16:29.184Z,0.51
2023-02-26T00:19:00.949Z,0.42
2023-02-26T00:21:28.602Z,0.22
2023-02-26T00:23:55.452Z,0.32
2023-02-26T00:26:24.035Z,0.35
2023-02-26T00:28:50.794Z,0.32
2023-02-26T00:31:18.719Z,0.21
2023-02-26T00:33:45.491Z,0.28
2023-02-26T00:36:24.469Z,0.27
2023-02-26T00:39:13.380Z,0.26
2023-02-26T00:41:40.157Z,0.24
2023-02-26T00:44:06.897Z,0.24
2023-02-26T00:46:45.466Z,0.15
2023-02-26T00:49:33.551Z,0.22
2023-02-26T00:52:05.170Z,0.21
2023-02-26T00:54:32.053Z,0.20
2023-02-26T00:56:59.418Z,0.19
2023-02-26T00:59:25.915Z,0.07
2023-02-26T01:01:53.164Z,0.12
2023-02-26T01:04:22.416Z,0.22
2023-02-26T01:06:52.387Z,0.24
2023-02-26T01:09:36.359Z,0.31
2023-02-26T01:12:13.241Z,0.09
2023-02-26T01:14:40.294Z,0.38
2023-02-26T01:17:26.898Z,0.34
2023-02-26T01:19:58.237Z,0.46
2023-02-26T01:22:43.375Z,0.53
2023-02-26T01:25:22.036Z,0.35
2023-02-26T01:27:48.704Z,0.55
2023-02-26T01:30:15.762Z,0.53
2023-02-26T01:32:58.863Z,0.66
2023-02-26T01:35:46.031Z,0.71
2023-02-26T01:38:35.389Z,0.63
2023-02-26T01:41:18.521Z,0.77
2023-02-26T01:43:47.872Z,0.78
2023-02-26T01:46:17.715Z,0.82
2023-02-26T01:48:56.712Z,0.80
2023-02-26T01:51:51.790Z,0.92
2023-02-26T01:54:21.927Z,0.86
2023-02-26T01:56:50.399Z,1.04
2023-02-26T01:59:24.138Z,1.03
2023-02-26T02:01:53.458Z,1.03
2023-02-26T02:04:20.503Z,1.02
2023-02-26T02:06:47.928Z,1.01
2023-02-26T02:09:14.400Z,0.97
2023-02-26T02:11:53.011Z,0.95
2023-02-26T02:14:33.399Z,0.76
2023-02-26T02:17:08.415Z,0.81
2023-02-26T02:19:56.356Z,0.71
2023-02-26T02:22:29.030Z,0.68
2023-02-26T02:25:26.779Z,0.60
2023-02-26T02:28:31.091Z,0.51
2023-02-26T02:31:06.903Z,0.42
2023-02-26T02:33:47.048Z,0.32
2023-02-26T02:36:21.853Z,0.29
2023-02-26T02:39:05.374Z,0.23
2023-02-26T02:41:42.558Z,-0.03
2023-02-26T02:44:15.646Z,0.12
2023-02-26T02:46:45.667Z,0.07
2023-02-26T02:49:25.466Z,0.02
2023-02-26T02:51:58.750Z,0.00
2023-02-26T02:54:34.441Z,-0.14
2023-02-26T02:57:16.000Z,-0.03
2023-02-26T02:59:48.800Z,-0.09
2023-02-26T03:03:04.426Z,-0.04
2023-02-26T03:05:30.939Z,-0.21
2023-02-26T03:08:01.762Z,-0.12
2023-02-26T03:10:28.811Z,-0.32
2023-02-26T03:12:55.550Z,-0.17
2023-02-26T03:15:46.978Z,-0.23
2023-02-26T03:18:22.458Z,-0.41
2023-02-26T03:21:04.431Z,-0.30
2023-02-26T03:23:45.195Z,-0.42
2023-02-26T03:26:33.815Z,-0.52
2023-02-26T03:29:54.180Z,-0.44
2023-02-26T03:32:50.420Z,-0.49
2023-02-26T03:35:30.053Z,-0.52
2023-02-26T03:38:00.622Z,-0.65
2023-02-26T03:40:40.519Z,-0.54
2023-02-26T03:43:14.387Z,-0.57
2023-02-26T03:45:43.331Z,-0.59
2023-02-26T03:48:13.451Z,-0.67
2023-02-26T03:50:53.652Z,-0.63
2023-02-26T03:53:25.233Z,-0.64
2023-02-26T03:56:24.243Z,-0.65
2023-02-26T03:58:51.396Z,-0.98
2023-02-26T04:01:23.657Z,-0.91
2023-02-26T04:03:58.391Z,-0.97
2023-02-26T04:06:26.123Z,-0.91
2023-02-26T04:08:53.324Z,-0.90
2023-02-26T04:11:22.776Z,-1.11
2023-02-26T04:13:50.679Z,-0.93
2023-02-26T04:16:18.676Z,-0.95
2023-02-26T04:18:45.345Z,-0.96
2023-02-26T04:21:17.322Z,-0.96
2023-02-26T04:23:43.773Z,-0.99
2023-02-26T04:26:10.274Z,-0.99
2023-02-26T04:28:37.867Z,-1.00
2023-02-26T04:31:05.610Z,-0.94
2023-02-26T04:33:33.297Z,-0.99
2023-02-26T04:36:00.585Z,-1.08
2023-02-26T04:38:27.603Z,-0.97
2023-02-26T04:40:54.044Z,-1.18
2023-02-26T04:43:20.539Z,-1.07
2023-02-26T04:45:47.817Z,-1.04
2023-02-26T04:48:15.563Z,-1.22
2023-02-26T04:50:42.328Z,-1.26
2023-02-26T04:53:09.137Z,-1.42
2023-02-26T04:55:36.441Z,-1.18
2023-02-26T04:58:03.923Z,-1.25
2023-02-26T05:00:30.337Z,-1.39
2023-02-26T05:02:56.890Z,-1.33
2023-02-26T05:05:23.902Z,-1.64
2023-02-26T05:07:53.722Z,-1.37
2023-02-26T05:10:20.157Z,-1.27
2023-02-26T05:12:46.582Z,-1.47
2023-02-26T05:15:13.091Z,-1.47
2023-02-26T05:17:39.747Z,-1.25
2023-02-26T05:20:07.380Z,-1.22
2023-02-26T05:22:33.813Z,-1.26
2023-02-26T05:25:00.238Z,-1.29
2023-02-26T05:27:26.672Z,-1.20
2023-02-26T05:29:53.126Z,-1.48
2023-02-26T05:32:19.608Z,-1.46
2023-02-26T05:34:46.048Z,-1.18
2023-02-26T05:37:12.528Z,-1.24
2023-02-26T05:39:41.398Z,-1.16
2023-02-26T05:42:08.712Z,-1.16
2023-02-26T05:44:35.532Z,-1.20
2023-02-26T05:47:03.173Z,-1.17
2023-02-26T05:49:29.630Z,-1.15
2023-02-26T05:51:56.131Z,-1.18
2023-02-26T05:54:22.692Z,-1.47
2023-02-26T05:56:49.119Z,-1.15
2023-02-26T05:59:15.670Z,-1.20
2023-02-26T06:01:42.688Z,-1.16
2023-02-26T06:04:09.579Z,-1.17
2023-02-26T06:06:37.117Z,-1.34
2023-02-26T06:09:03.633Z,-1.28
2023-02-26T06:11:33.478Z,-1.16
2023-02-26T06:14:00.681Z,-1.14
2023-02-26T06:16:27.700Z,-1.13
2023-02-26T06:18:54.285Z,-1.11
2023-02-26T06:21:20.729Z,-1.08
2023-02-26T06:23:47.194Z,-1.13
2023-02-26T06:26:14.886Z,-1.03
2023-02-26T06:28:41.788Z,-1.02
2023-02-26T06:31:08.233Z,-0.99
2023-02-26T06:33:34.651Z,-0.98
2023-02-26T06:36:01.454Z,-0.97
2023-02-26T06:38:28.924Z,-0.95
2023-02-26T06:40:55.613Z,-0.93
2023-02-26T06:43:22.392Z,-1.09
2023-02-26T06:45:49.426Z,-0.92
2023-02-26T06:48:16.174Z,-0.90
2023-02-26T06:50:42.662Z,-0.86
2023-02-26T06:53:09.252Z,-0.80
2023-02-26T06:55:35.713Z,-0.76
2023-02-26T06:58:02.080Z,-0.64
2023-02-26T07:00:28.468Z,-0.53
2023-02-26T07:02:54.933Z,-0.43
2023-02-26T07:05:21.503Z,-0.40
2023-02-26T07:07:48.120Z,-0.22
2023-02-26T07:10:14.563Z,-0.18
2023-02-26T07:12:41.111Z,-0.04
2023-02-26T07:15:08.414Z,0.05
2023-02-26T07:17:34.888Z,-0.04
2023-02-26T07:20:06.432Z,0.22
2023-02-26T07:22:33.877Z,0.13
2023-02-26T07:25:00.403Z,0.23
2023-02-26T07:27:27.397Z,0.25
2023-02-26T07:29:53.786Z,0.27
2023-02-26T07:32:20.298Z,0.27
2023-02-26T07:34:46.813Z,0.26
2023-02-26T07:37:13.424Z,0.29
2023-02-26T07:39:40.028Z,0.23
2023-02-26T07:42:06.443Z,0.31
2023-02-26T07:44:32.874Z,0.35
2023-02-26T07:46:59.973Z,0.39
2023-02-26T07:49:26.467Z,0.41
2023-02-26T07:51:53.180Z,0.50
2023-02-26T07:54:19.664Z,0.55
2023-02-26T07:56:46.123Z,0.59
2023-02-26T07:59:12.668Z,0.66
2023-02-26T08:01:39.101Z,0.72
2023-02-26T08:04:05.654Z,0.59
2023-02-26T08:06:32.088Z,0.86
2023-02-26T08:08:58.525Z,0.99
2023-02-26T08:11:24.940Z,0.83
2023-02-26T08:13:51.615Z,1.09
2023-02-26T08:16:18.394Z,1.00
2023-02-26T08:18:45.011Z,1.23
2023-02-26T08:21:11.932Z,1.37
2023-02-26T08:23:39.277Z,1.45
2023-02-26T08:26:08.694Z,1.40
2023-02-26T08:28:35.357Z,1.62
2023-02-26T08:31:02.613Z,1.70
2023-02-26T08:33:29.982Z,1.71
2023-02-26T08:35:59.164Z,1.84
2023-02-26T08:38:27.838Z,2.01
2023-02-26T08:40:54.587Z,2.11
2023-02-26T08:43:21.163Z,2.22
2023-02-26T08:45:47.760Z,2.24
2023-02-26T08:48:14.274Z,2.31
2023-02-26T08:50:40.730Z,2.50
2023-02-26T08:53:07.632Z,2.56
2023-02-26T08:55:34.176Z,2.52
2023-02-26T08:58:00.674Z,2.82
2023-02-26T09:00:27.307Z,2.84
2023-02-26T09:02:53.901Z,2.88
2023-02-26T09:05:20.396Z,3.22
2023-02-26T09:07:46.830Z,3.34
2023-02-26T09:10:14.487Z,3.50
2023-02-26T09:12:41.439Z,3.65
2023-02-26T09:15:09.971Z,3.74
2023-02-26T09:17:36.828Z,3.87
2023-02-26T09:20:04.509Z,4.03
2023-02-26T09:22:31.006Z,4.06
2023-02-26T09:24:58.143Z,4.41
2023-02-26T09:27:25.139Z,4.58
2023-02-26T09:29:51.631Z,4.73
2023-02-26T09:32:18.129Z,4.86
2023-02-26T09:34:44.598Z,4.65
2023-02-26T09:37:11.120Z,4.85
2023-02-26T09:39:37.872Z,4.98
2023-02-26T09:42:22.266Z,4.97
2023-02-26T09:44:49.120Z,5.21
2023-02-26T09:47:27.225Z,5.35
2023-02-26T09:50:05.938Z,5.45
2023-02-26T09:52:46.977Z,5.42
2023-02-26T09:55:28.169Z,5.68
2023-02-26T09:58:00.795Z,5.84
2023-02-26T10:00:38.458Z,6.03
2023-02-26T10:03:23.766Z,6.16
2023-02-26T10:06:08.648Z,6.42
2023-02-26T10:08:52.433Z,6.45
2023-02-26T10:11:31.208Z,6.67
2023-02-26T10:14:11.992Z,6.70
2023-02-26T10:16:46.251Z,6.90
2023-02-26T10:19:20.932Z,7.04
2023-02-26T10:21:56.693Z,7.07
2023-02-26T10:24:31.922Z,7.27
2023-02-26T10:27:06.788Z,7.23
2023-02-26T10:29:56.302Z,7.50
2023-02-26T10:32:38.695Z,7.59
2023-02-26T10:35:18.212Z,7.40
2023-02-26T10:37:52.223Z,7.39
2023-02-26T10:40:43.241Z,7.13
2023-02-26T10:43:44.767Z,7.11
2023-02-26T10:46:37.996Z,7.19
2023-02-26T10:49:07.567Z,7.13
2023-02-26T10:51:39.713Z,6.99
2023-02-26T10:54:44.739Z,7.19
2023-02-26T10:57:35.717Z,7.10
2023-02-26T11:00:05.321Z,6.95
2023-02-26T11:02:39.736Z,6.95
2023-02-26T11:05:16.311Z,6.87
2023-02-26T11:07:45.328Z,6.55
2023-02-26T11:10:19.977Z,6.91
2023-02-26T11:12:47.357Z,6.76
2023-02-26T11:15:16.944Z,7.07
2023-02-26T11:17:43.659Z,7.21
2023-02-26T11:20:16.030Z,7.31
2023-02-26T11:22:49.028Z,7.45
2023-02-26T11:25:20.374Z,7.44
2023-02-26T11:27:50.879Z,7.42
2023-02-26T11:30:20.380Z,7.38
2023-02-26T11:32:51.487Z,7.61
2023-02-26T11:35:22.623Z,7.52
2023-02-26T11:37:55.805Z,7.63
2023-02-26T11:40:26.721Z,7.53
2023-02-26T11:43:00.437Z,7.57
2023-02-26T11:45:27.122Z,7.31
2023-02-26T11:48:02.280Z,7.44
2023-02-26T11:50:30.346Z,7.23
2023-02-26T11:53:05.360Z,7.31
2023-02-26T11:55:40.016Z,7.35
2023-02-26T11:58:18.701Z,7.27
2023-02-26T12:00:46.471Z,7.36
2023-02-26T12:03:28.774Z,7.20
2023-02-26T12:05:56.023Z,7.33
2023-02-26T12:08:28.325Z,7.16
2023-02-26T12:11:04.084Z,7.29
2023-02-26T12:13:54.604Z,7.22
2023-02-26T12:16:31.221Z,7.35
2023-02-26T12:19:04.379Z,7.24
2023-02-26T12:21:45.574Z,7.20
2023-02-26T12:24:35.566Z,7.43
2023-02-26T12:27:10.248Z,7.19
2023-02-26T12:30:03.190Z,7.50
2023-02-26T12:32:47.965Z,7.48
2023-02-26T12:35:33.629Z,7.46
2023-02-26T12:38:25.736Z,7.45
2023-02-26T12:41:30.857Z,7.43
2023-02-26T12:44:00.515Z,7.38
2023-02-26T12:46:52.453Z,7.39
2023-02-26T12:49:54.288Z,7.33
2023-02-26T12:53:04.148Z,7.36
2023-02-26T12:55:44.680Z,7.27
2023-02-26T12:58:26.219Z,7.25
2023-02-26T13:00:55.690Z,7.27
2023-02-26T13:03:50.027Z,7.36
2023-02-26T13:06:19.550Z,7.41
2023-02-26T13:08:52.213Z,7.56
2023-02-26T13:11:54.998Z,7.78
2023-02-26T13:14:32.197Z,7.94
2023-02-26T13:17:05.544Z,7.80
2023-02-26T13:19:49.535Z,8.09
2023-02-26T13:22:18.961Z,8.14
2023-02-26T13:25:12.821Z,8.13
2023-02-26T13:27:41.296Z,8.06
2023-02-26T13:30:21.780Z,8.05
2023-02-26T13:35:46.802Z,7.85
2023-02-26T13:38:50.410Z,7.77
2023-02-26T13:41:26.238Z,7.62
2023-02-26T13:43:58.512Z,7.57
2023-02-26T13:46:48.440Z,7.50
2023-02-26T13:49:38.262Z,7.21
2023-02-26T13:52:04.749Z,7.17
2023-02-26T13:54:44.215Z,7.37
2023-02-26T13:57:25.936Z,7.36
2023-02-26T13:59:58.991Z,7.32
2023-02-26T14:02:43.284Z,7.31
2023-02-26T14:05:29.687Z,7.40
2023-02-26T14:07:59.089Z,7.52
2023-02-26T14:10:47.120Z,7.65
2023-02-26T14:13:23.079Z,7.67
2023-02-26T14:16:22.941Z,7.75
2023-02-26T14:18:52.106Z,7.65
2023-02-26T14:21:28.255Z,7.59
2023-02-26T14:24:01.555Z,7.51
2023-02-26T14:26:33.266Z,7.45
2023-02-26T14:29:05.438Z,7.50
2023-02-26T14:31:54.227Z,7.51
2023-02-26T14:34:26.608Z,7.48
2023-02-26T14:36:56.332Z,7.47
2023-02-26T14:39:25.040Z,7.54
2023-02-26T14:41:58.936Z,7.69
2023-02-26T14:44:37.182Z,7.90
2023-02-26T14:47:04.182Z,8.20
2023-02-26T14:49:37.625Z,8.36
2023-02-26T14:52:37.013Z,8.45
2023-02-26T14:55:20.413Z,8.39
2023-02-26T14:58:06.245Z,8.24
2023-02-26T15:00:45.093Z,8.04
2023-02-26T15:03:33.495Z,7.86
2023-02-26T15:06:27.288Z,7.76
2023-02-26T15:09:05.635Z,7.63
2023-02-26T15:11:43.925Z,7.52
2023-02-26T15:14:44.371Z,7.35
2023-02-26T15:17:29.572Z,7.35
2023-02-26T15:20:15.000Z,7.30
2023-02-26T15:22:59.465Z,7.30
2023-02-26T15:25:32.202Z,7.21
2023-02-26T15:27:58.755Z,7.13
2023-02-26T15:30:25.946Z,7.06
2023-02-26T15:32:57.397Z,7.03
2023-02-26T15:35:24.328Z,6.86
2023-02-26T15:37:54.162Z,7.14
2023-02-26T15:40:20.997Z,7.26
2023-02-26T15:42:51.873Z,7.47
2023-02-26T15:45:18.209Z,7.58
2023-02-26T15:47:44.783Z,7.67
2023-02-26T15:50:16.871Z,7.74
2023-02-26T15:52:44.044Z,7.87
2023-02-26T15:55:16.908Z,7.83
2023-02-26T15:57:43.855Z,7.73
2023-02-26T16:00:16.336Z,7.62
2023-02-26T16:02:45.472Z,7.41
2023-02-26T16:05:16.307Z,7.29
2023-02-26T16:07:42.803Z,7.20
2023-02-26T16:10:38.295Z,7.13
2023-02-26T16:13:06.806Z,6.89
2023-02-26T16:15:37.165Z,6.90
2023-02-26T16:18:13.122Z,6.81
2023-02-26T16:20:44.211Z,6.61
2023-02-26T16:23:21.867Z,6.66
2023-02-26T16:25:55.516Z,6.51
2023-02-26T16:28:26.860Z,6.25
2023-02-26T16:30:56.115Z,6.25
2023-02-26T16:33:24.945Z,6.26
2023-02-26T16:36:11.192Z,6.18
2023-02-26T16:38:58.083Z,6.10
2023-02-26T16:41:26.501Z,5.59
2023-02-26T16:43:58.371Z,5.95
2023-02-26T16:46:45.925Z,5.88
2023-02-26T16:49:23.735Z,5.85
2023-02-26T16:51:51.474Z,5.74
2023-02-26T16:54:28.238Z,5.75
2023-02-26T16:57:03.544Z,5.67
2023-02-26T16:59:34.419Z,5.61
2023-02-26T17:02:04.504Z,5.43
2023-02-26T17:04:36.216Z,5.55
2023-02-26T17:07:14.500Z,5.47
2023-02-26T17:09:49.040Z,5.38
2023-02-26T17:12:19.645Z,5.20
2023-02-26T17:14:52.733Z,5.18
2023-02-26T17:17:19.497Z,4.89
2023-02-26T17:19:45.904Z,4.98
2023-02-26T17:22:16.440Z,4.91
2023-02-26T17:24:45.586Z,4.80
2023-02-26T17:27:18.099Z,4.73
2023-02-26T17:29:46.483Z,4.51
2023-02-26T17:32:21.604Z,4.51
2023-02-26T17:34:48.920Z,4.39
2023-02-26T17:37:16.437Z,4.13
2023-02-26T17:39:44.597Z,4.23
2023-02-26T17:42:13.156Z,4.14
2023-02-26T17:44:39.970Z,4.04
2023-02-26T17:47:09.815Z,3.98
2023-02-26T17:49:36.234Z,3.89
2023-02-26T17:52:02.668Z,3.74
2023-02-26T17:54:29.084Z,3.73
2023-02-26T17:56:55.534Z,3.61
2023-02-26T17:59:22.017Z,3.61
2023-02-26T18:01:48.506Z,3.53
2023-02-26T18:04:16.606Z,3.34
2023-02-26T18:06:43.350Z,3.40
2023-02-26T18:09:11.674Z,3.34
2023-02-26T18:11:38.682Z,3.17
2023-02-26T18:14:05.760Z,3.21
2023-02-26T18:16:39.158Z,3.14
2023-02-26T18:19:07.669Z,2.92
2023-02-26T18:21:34.624Z,2.90
2023-02-26T18:24:01.189Z,2.81
2023-02-26T18:26:31.353Z,2.84
2023-02-26T18:28:57.785Z,2.89
2023-02-26T18:31:33.324Z,2.53
2023-02-26T18:34:01.411Z,2.53
2023-02-26T18:36:35.574Z,2.52
2023-02-26T18:39:02.896Z,2.38
2023-02-26T18:41:30.752Z,2.26
2023-02-26T18:43:57.340Z,2.03
2023-02-26T18:46:24.330Z,1.99
2023-02-26T18:48:51.255Z,1.91
2023-02-26T18:51:17.716Z,1.81
2023-02-26T18:53:44.511Z,1.68
2023-02-26T18:56:11.262Z,1.45
2023-02-26T18:58:40.297Z,1.48
2023-02-26T19:01:06.922Z,1.43
2023-02-26T19:03:33.477Z,1.34
2023-02-26T19:06:05.594Z,1.15
2023-02-26T19:08:32.496Z,1.25
2023-02-26T19:10:59.502Z,1.13
2023-02-26T19:13:27.100Z,1.13
2023-02-26T19:15:53.543Z,1.05
2023-02-26T19:18:20.559Z,0.98
2023-02-26T19:20:47.101Z,0.95
2023-02-26T19:23:13.866Z,0.91
2023-02-26T19:25:42.597Z,0.79
2023-02-26T19:28:09.554Z,0.77
2023-02-26T19:30:36.514Z,0.72
2023-02-26T19:33:03.075Z,0.51
2023-02-26T19:35:30.615Z,0.59
2023-02-26T19:37:57.210Z,0.29
2023-02-26T19:40:24.494Z,0.45
2023-02-26T19:42:51.054Z,0.16
2023-02-26T19:45:17.645Z,0.31
2023-02-26T19:47:44.186Z,0.14
2023-02-26T19:50:11.323Z,0.16
2023-02-26T19:52:37.779Z,0.11
2023-02-26T19:55:06.729Z,-0.15
2023-02-26T19:57:33.599Z,-0.04
2023-02-26T20:00:00.206Z,-0.08
2023-02-26T20:02:27.190Z,-0.33
2023-02-26T20:04:53.752Z,-0.11
2023-02-26T20:07:20.465Z,-0.17
2023-02-26T20:09:48.776Z,-0.12
2023-02-26T20:12:15.960Z,-0.28
2023-02-26T20:14:42.408Z,-0.08
2023-02-26T20:17:09.433Z,-0.13
2023-02-26T20:19:35.827Z,-0.16
2023-02-26T20:22:02.287Z,-0.16
2023-02-26T20:24:28.789Z,-0.14
2023-02-26T20:26:55.239Z,-0.19
2023-02-26T20:29:24.081Z,-0.15
2023-02-26T20:31:51.201Z,-0.18
2023-02-26T20:34:19.214Z,-0.29
2023-02-26T20:36:47.372Z,-0.22
2023-02-26T20:39:14.900Z,-0.20
2023-02-26T20:41:41.676Z,-0.30
2023-02-26T20:44:08.151Z,-0.27
2023-02-26T20:46:35.882Z,-0.32
2023-02-26T20:49:03.500Z,-0.37
2023-02-26T20:51:30.051Z,-0.42
2023-02-26T20:53:56.843Z,-0.46
2023-02-26T20:56:23.944Z,-0.72
2023-02-26T20:58:50.848Z,-0.62
2023-02-26T21:01:17.253Z,-0.52
2023-02-26T21:03:43.647Z,-0.55
2023-02-26T21:06:10.869Z,-0.67
2023-02-26T21:08:37.265Z,-0.60
2023-02-26T21:11:03.762Z,-0.63
2023-02-26T21:13:30.276Z,-0.69
2023-02-26T21:15:57.432Z,-0.75
2023-02-26T21:18:23.884Z,-0.72
2023-02-26T21:20:50.779Z,-0.88
2023-02-26T21:23:18.264Z,-1.02
2023-02-26T21:25:44.717Z,-0.82
2023-02-26T21:28:11.155Z,-0.80
2023-02-26T21:30:37.576Z,-0.92
2023-02-26T21:33:04.115Z,-0.86
2023-02-26T21:35:30.547Z,-0.88
2023-02-26T21:37:57.187Z,-0.91
2023-02-26T21:40:24.897Z,-0.92
2023-02-26T21:42:51.335Z,-0.94
2023-02-26T21:45:17.934Z,-1.10
2023-02-26T21:47:44.454Z,-1.02
2023-02-26T21:50:11.354Z,-1.07
2023-02-26T21:52:37.800Z,-0.96
2023-02-26T21:55:04.543Z,-0.97
2023-02-26T21:57:31.076Z,-1.07
2023-02-26T21:59:57.903Z,-1.08
2023-02-26T22:02:24.542Z,-1.06
2023-02-26T22:04:51.023Z,-1.27
2023-02-26T22:07:17.489Z,-1.12
2023-02-26T22:09:46.198Z,-1.13
2023-02-26T22:12:13.462Z,-1.13
2023-02-26T22:14:39.922Z,-1.35
2023-02-26T22:17:06.695Z,-1.18
2023-02-26T22:19:33.272Z,-1.46
2023-02-26T22:21:59.757Z,-1.37
2023-02-26T22:24:26.435Z,-1.42
2023-02-26T22:26:53.102Z,-1.26
2023-02-26T22:29:19.774Z,-1.31
2023-02-26T22:31:47.472Z,-1.22
2023-02-26T22:34:14.676Z,-1.22
2023-02-26T22:36:41.170Z,-1.29
2023-02-26T22:39:07.810Z,-1.36
2023-02-26T22:41:35.689Z,-1.32
2023-02-26T22:44:02.715Z,-1.31
2023-02-26T22:46:29.260Z,-1.38
2023-02-26T22:48:56.373Z,-1.36
2023-02-26T22:51:23.072Z,-1.37
2023-02-26T22:53:50.389Z,-1.37
2023-02-26T22:56:17.070Z,-1.39
2023-02-26T22:58:43.532Z,-1.43
2023-02-26T23:01:10.114Z,-1.39
2023-02-26T23:03:36.488Z,-1.54
2023-02-26T23:06:03.056Z,-1.42
2023-02-26T23:08:29.610Z,-1.62
2023-02-26T23:10:58.329Z,-1.45
2023-02-26T23:13:26.087Z,-1.50
2023-02-26T23:15:53.067Z,-1.45
2023-02-26T23:18:19.943Z,-1.48
2023-02-26T23:20:47.773Z,-1.57
2023-02-26T23:23:14.359Z,-1.48
2023-02-26T23:25:42.338Z,-1.53
2023-02-26T23:28:09.094Z,-1.52
2023-02-26T23:30:36.357Z,-1.50
2023-02-26T23:33:04.189Z,-1.48
2023-02-26T23:35:31.043Z,-1.58
2023-02-26T23:37:57.699Z,-1.48
2023-02-26T23:40:24.225Z,-1.72
2023-02-26T23:42:50.800Z,-1.36
2023-02-26T23:45:17.570Z,-1.48
2023-02-26T23:47:43.989Z,-1.33
2023-02-26T23:50:11.191Z,-1.42
2023-02-26T23:52:37.786Z,-1.30
2023-02-26T23:55:05.063Z,-1.28
2023-02-26T23:57:31.705Z,-1.26
2023-02-26T23:59:58.273Z,-1.22
